createdAt,value
2022-11-04T00:01:33.427Z,1.30
2022-11-04T00:04:01.719Z,1.48
2022-11-04T00:06:29.633Z,1.70
2022-11-04T00:09:00.473Z,1.60
2022-11-04T00:11:46.886Z,1.40
2022-11-04T00:14:16.016Z,1.40
2022-11-04T00:17:01.834Z,1.77
2022-11-04T00:19:49.820Z,1.40
2022-11-04T00:22:35.219Z,1.52
2022-11-04T00:25:21.849Z,1.80
2022-11-04T00:28:07.562Z,1.90
2022-11-04T00:30:35.643Z,1.73
2022-11-04T00:33:21.228Z,1.80
2022-11-04T00:35:53.473Z,1.40
2022-11-04T00:38:21.897Z,1.50
2022-11-04T00:40:51.220Z,1.65
2022-11-04T00:43:19.212Z,1.60
2022-11-04T00:45:47.356Z,1.50
2022-11-04T00:48:15.179Z,1.73
2022-11-04T00:50:43.820Z,2.03
2022-11-04T00:53:11.932Z,1.60
2022-11-04T00:55:39.875Z,1.70
2022-11-04T00:58:09.095Z,1.55
2022-11-04T01:00:36.908Z,1.50
2022-11-04T01:03:04.983Z,1.60
2022-11-04T01:05:33.121Z,1.63
2022-11-04T01:08:00.930Z,1.55
2022-11-04T01:10:28.792Z,1.70
2022-11-04T01:12:56.605Z,1.58
2022-11-04T01:15:25.909Z,1.70
2022-11-04T01:17:53.696Z,1.40
2022-11-04T01:20:21.664Z,1.73
2022-11-04T01:22:49.503Z,1.58
2022-11-04T01:25:17.498Z,1.30
2022-11-04T01:27:45.341Z,1.33
2022-11-04T01:30:14.131Z,1.63
2022-11-04T01:32:43.394Z,1.40
2022-11-04T01:35:11.404Z,1.58
2022-11-04T01:37:39.247Z,1.67
2022-11-04T01:40:08.913Z,1.88
2022-11-04T01:42:36.738Z,1.45
2022-11-04T01:45:05.090Z,1.27
2022-11-04T01:47:41.077Z,1.73
2022-11-04T01:50:15.714Z,1.38
2022-11-04T01:52:49.116Z,1.55
2022-11-04T01:55:22.083Z,1.42
2022-11-04T01:57:56.666Z,1.60
2022-11-04T02:00:24.959Z,1.35
2022-11-04T02:03:00.843Z,1.50
2022-11-04T02:05:31.625Z,1.50
2022-11-04T02:08:03.193Z,1.23
2022-11-04T02:10:32.652Z,1.60
2022-11-04T02:13:03.128Z,1.45
2022-11-04T02:15:41.687Z,1.67
2022-11-04T02:18:37.315Z,0.95
2022-11-04T02:21:31.702Z,1.30
2022-11-04T02:24:42.810Z,1.50
2022-11-04T02:27:38.716Z,1.70
2022-11-04T02:30:14.815Z,1.33
2022-11-04T02:33:27.463Z,1.20
2022-11-04T02:36:04.427Z,1.23
2022-11-04T02:38:44.987Z,1.52
2022-11-04T02:41:28.159Z,1.23
2022-11-04T02:44:13.459Z,1.40
2022-11-04T02:46:52.256Z,1.38
2022-11-04T02:49:27.621Z,1.27
2022-11-04T02:52:03.925Z,1.30
2022-11-04T02:54:40.127Z,1.42
2022-11-04T02:57:14.875Z,1.30
2022-11-04T02:59:49.604Z,1.75
2022-11-04T03:02:26.239Z,1.50
2022-11-04T03:04:56.593Z,1.30
2022-11-04T03:07:30.187Z,1.55
2022-11-04T03:10:06.135Z,1.50
2022-11-04T03:12:41.959Z,1.30
2022-11-04T03:15:18.554Z,1.67
2022-11-04T03:17:54.634Z,1.48
2022-11-04T03:20:27.594Z,1.33
2022-11-04T03:22:59.825Z,1.27
2022-11-04T03:25:33.533Z,1.63
2022-11-04T03:28:11.208Z,1.30
2022-11-04T03:30:44.674Z,1.25
2022-11-04T03:33:24.203Z,1.30
2022-11-04T03:35:52.166Z,1.50
2022-11-04T03:38:22.972Z,1.15
2022-11-04T03:40:52.022Z,1.30
2022-11-04T03:43:27.729Z,1.20
2022-11-04T03:45:56.056Z,1.23
2022-11-04T03:48:25.675Z,1.20
2022-11-04T03:50:53.589Z,1.35
2022-11-04T03:56:28.995Z,1.25
2022-11-04T03:59:15.367Z,1.40
2022-11-04T04:01:51.721Z,1.38
2022-11-04T04:04:30.716Z,1.13
2022-11-04T04:07:08.278Z,1.35
2022-11-04T04:09:43.234Z,1.08
2022-11-04T04:12:18.639Z,1.30
2022-11-04T04:14:52.746Z,1.35
2022-11-04T04:17:29.679Z,1.40
2022-11-04T04:20:05.309Z,1.02
2022-11-04T04:22:41.096Z,1.17
2022-11-04T04:25:31.480Z,1.20
2022-11-04T04:28:02.828Z,1.00
2022-11-04T04:30:31.437Z,1.25
2022-11-04T04:33:06.370Z,1.00
2022-11-04T04:35:44.808Z,1.20
2022-11-04T04:38:39.665Z,1.15
2022-11-04T04:41:33.527Z,1.33
2022-11-04T04:44:19.898Z,1.00
2022-11-04T04:46:51.741Z,1.27
2022-11-04T04:49:19.590Z,1.23
2022-11-04T04:51:49.493Z,1.02
2022-11-04T04:54:17.371Z,1.08
2022-11-04T04:56:45.203Z,1.40
2022-11-04T04:59:13.016Z,1.38
2022-11-04T05:01:41.051Z,1.20
2022-11-04T05:04:08.982Z,1.17
2022-11-04T05:06:36.851Z,1.30
2022-11-04T05:09:06.244Z,1.00
2022-11-04T05:11:34.359Z,1.15
2022-11-04T05:14:02.225Z,1.38
2022-11-04T05:16:30.605Z,1.25
2022-11-04T05:18:58.413Z,1.20
2022-11-04T05:21:26.338Z,1.10
2022-11-04T05:23:54.206Z,1.15
2022-11-04T05:26:23.509Z,1.27
2022-11-04T05:28:51.464Z,1.25
2022-11-04T05:31:19.466Z,1.30
2022-11-04T05:33:47.512Z,1.05
2022-11-04T05:36:17.901Z,1.27
2022-11-04T05:38:51.226Z,1.13
2022-11-04T05:41:25.984Z,1.20
2022-11-04T05:43:56.845Z,1.10
2022-11-04T05:46:26.028Z,1.17
2022-11-04T05:48:54.411Z,1.20
2022-11-04T05:51:26.841Z,0.90
2022-11-04T05:53:54.914Z,1.02
2022-11-04T05:56:23.128Z,1.10
2022-11-04T05:58:51.099Z,1.10
2022-11-04T06:01:34.792Z,1.00
2022-11-04T06:04:05.290Z,0.90
2022-11-04T06:06:35.978Z,1.30
2022-11-04T06:09:04.968Z,1.20
2022-11-04T06:11:34.848Z,1.10
2022-11-04T06:14:03.159Z,1.10
2022-11-04T06:16:32.795Z,1.00
2022-11-04T06:19:05.879Z,1.10
2022-11-04T06:21:37.556Z,1.05
2022-11-04T06:24:05.852Z,0.90
2022-11-04T06:26:33.748Z,1.00
2022-11-04T06:29:01.617Z,1.13
2022-11-04T06:31:29.481Z,1.08
2022-11-04T06:33:58.732Z,1.05
2022-11-04T06:36:26.583Z,1.20
2022-11-04T06:38:57.614Z,1.10
2022-11-04T06:41:29.436Z,1.02
2022-11-04T06:43:57.267Z,0.80
2022-11-04T06:46:28.916Z,1.10
2022-11-04T06:48:58.596Z,1.08
2022-11-04T06:54:26.383Z,0.85
2022-11-04T06:56:54.229Z,1.10
2022-11-04T06:59:23.942Z,0.90
2022-11-04T07:01:52.644Z,1.15
2022-11-04T07:04:22.034Z,0.98
2022-11-04T07:06:50.177Z,0.90
2022-11-04T07:09:18.435Z,0.90
2022-11-04T07:11:46.836Z,0.98
2022-11-04T07:14:14.992Z,1.00
2022-11-04T07:16:42.963Z,0.90
2022-11-04T07:19:10.853Z,1.00
2022-11-04T07:21:40.133Z,0.90
2022-11-04T07:24:08.440Z,1.00
2022-11-04T07:26:36.354Z,1.48
2022-11-04T07:29:06.631Z,0.88
2022-11-04T07:31:34.727Z,1.00
2022-11-04T07:34:03.177Z,0.82
2022-11-04T07:36:31.585Z,0.90
2022-11-04T07:39:01.046Z,1.17
2022-11-04T07:41:29.461Z,0.90
2022-11-04T07:43:58.901Z,0.90
2022-11-04T07:46:26.746Z,0.90
2022-11-04T07:48:57.448Z,0.95
2022-11-04T07:51:26.247Z,1.02
2022-11-04T07:53:55.536Z,1.02
2022-11-04T07:56:25.175Z,0.90
2022-11-04T07:58:53.477Z,1.02
2022-11-04T08:01:24.762Z,0.98
2022-11-04T08:03:54.077Z,0.80
2022-11-04T08:06:23.544Z,0.85
2022-11-04T08:08:54.026Z,0.98
2022-11-04T08:11:28.398Z,0.85
2022-11-04T08:13:57.315Z,1.42
2022-11-04T08:16:33.061Z,0.80
2022-11-04T08:19:02.865Z,0.90
2022-11-04T08:21:33.706Z,0.73
2022-11-04T08:24:03.407Z,0.70
2022-11-04T08:26:33.110Z,1.02
2022-11-04T08:29:02.388Z,0.90
2022-11-04T08:31:33.724Z,1.00
2022-11-04T08:34:02.941Z,0.90
2022-11-04T08:36:34.444Z,0.98
2022-11-04T08:39:10.407Z,1.10
2022-11-04T08:41:45.413Z,0.75
2022-11-04T08:44:15.148Z,0.85
2022-11-04T08:46:46.212Z,0.80
2022-11-04T08:49:19.498Z,0.70
2022-11-04T08:51:56.377Z,0.80
2022-11-04T08:54:24.548Z,0.80
2022-11-04T08:56:53.946Z,0.90
2022-11-04T08:59:21.793Z,0.80
2022-11-04T09:01:49.783Z,0.88
2022-11-04T09:04:17.808Z,0.70
2022-11-04T09:06:46.660Z,1.10
2022-11-04T09:09:17.312Z,0.90
2022-11-04T09:11:46.535Z,1.08
2022-11-04T09:14:17.885Z,1.00
2022-11-04T09:16:46.073Z,0.65
2022-11-04T09:19:14.293Z,0.73
2022-11-04T09:21:43.635Z,0.90
2022-11-04T09:24:12.503Z,1.00
2022-11-04T09:26:40.756Z,0.60
2022-11-04T09:29:10.018Z,0.82
2022-11-04T09:31:40.491Z,0.90
2022-11-04T09:36:36.926Z,0.70
2022-11-04T09:39:05.720Z,0.75
2022-11-04T09:42:02.455Z,0.60
2022-11-04T09:45:07.310Z,0.60
2022-11-04T09:47:36.437Z,0.68
2022-11-04T09:50:11.350Z,0.65
2022-11-04T09:52:45.105Z,0.82
2022-11-04T09:55:22.167Z,0.70
2022-11-04T09:57:56.315Z,0.70
2022-11-04T10:00:24.364Z,0.80
2022-11-04T10:03:10.868Z,0.90
2022-11-04T10:06:00.629Z,0.88
2022-11-04T10:08:49.854Z,0.70
2022-11-04T10:11:28.207Z,0.80
2022-11-04T10:14:17.933Z,0.50
2022-11-04T10:17:03.094Z,0.68
2022-11-04T10:19:51.954Z,0.85
2022-11-04T10:22:32.843Z,0.85
2022-11-04T10:25:11.988Z,0.70
2022-11-04T10:27:45.205Z,0.90
2022-11-04T10:30:20.364Z,0.70
2022-11-04T10:33:02.606Z,0.95
2022-11-04T10:35:37.778Z,0.60
2022-11-04T10:38:23.341Z,0.70
2022-11-04T10:40:54.476Z,0.80
2022-11-04T10:43:34.149Z,0.70
2022-11-04T10:46:19.407Z,0.60
2022-11-04T10:48:59.049Z,0.63
2022-11-04T10:51:28.328Z,0.60
2022-11-04T10:53:59.534Z,0.60
2022-11-04T10:56:39.306Z,1.00
2022-11-04T10:59:24.417Z,0.82
2022-11-04T11:01:54.736Z,0.82
2022-11-04T11:04:29.761Z,0.80
2022-11-04T11:07:01.819Z,0.70
2022-11-04T11:09:31.752Z,0.80
2022-11-04T11:12:06.927Z,0.77
2022-11-04T11:14:43.555Z,0.68
2022-11-04T11:17:36.185Z,0.85
2022-11-04T11:20:21.615Z,1.42
2022-11-04T11:22:52.471Z,1.00
2022-11-04T11:25:28.306Z,0.70
2022-11-04T11:28:00.100Z,0.73
2022-11-04T11:30:32.888Z,1.73
2022-11-04T11:33:05.470Z,0.63
2022-11-04T11:35:41.980Z,0.70
2022-11-04T11:38:22.442Z,0.80
2022-11-04T11:41:22.792Z,0.80
2022-11-04T11:43:46.840Z,0.88
2022-11-04T11:46:15.121Z,0.60
2022-11-04T11:48:51.283Z,0.80
2022-11-04T11:51:31.760Z,0.85
2022-11-04T11:54:17.361Z,0.85
2022-11-04T12:02:47.941Z,0.88
2022-11-04T12:11:36.954Z,0.60
2022-11-04T12:14:10.215Z,1.50
2022-11-04T12:16:53.552Z,0.50
2022-11-04T12:19:49.839Z,0.70
2022-11-04T12:22:30.116Z,0.50
2022-11-04T12:25:12.863Z,0.70
2022-11-04T12:27:50.882Z,0.70
2022-11-04T12:30:30.958Z,0.90
2022-11-04T12:33:21.841Z,0.68
2022-11-04T12:36:07.960Z,0.82
2022-11-04T12:38:56.763Z,0.50
2022-11-04T12:42:06.362Z,0.47
2022-11-04T12:44:37.218Z,0.47
2022-11-04T12:47:29.922Z,0.60
2022-11-04T12:50:30.388Z,0.73
2022-11-04T12:53:17.631Z,0.75
2022-11-04T12:55:59.191Z,0.60
2022-11-04T12:58:44.943Z,0.68
2022-11-04T13:01:21.835Z,0.65
2022-11-04T13:03:56.953Z,0.65
2022-11-04T13:06:32.438Z,0.70
2022-11-04T13:09:06.794Z,0.60
2022-11-04T13:11:41.458Z,0.80
2022-11-04T13:14:20.609Z,0.80
2022-11-04T13:16:53.444Z,0.70
2022-11-04T13:19:29.244Z,0.90
2022-11-04T13:22:01.326Z,0.70
2022-11-04T13:24:32.791Z,0.65
2022-11-04T13:27:07.530Z,0.90
2022-11-04T13:29:37.108Z,0.80
2022-11-04T13:32:17.883Z,0.75
2022-11-04T13:34:55.320Z,0.60
2022-11-04T13:37:31.581Z,0.63
2022-11-04T13:40:07.664Z,0.60
2022-11-04T13:43:19.776Z,0.82
2022-11-04T13:45:52.923Z,0.57
2022-11-04T13:48:26.933Z,1.20
2022-11-04T13:51:03.428Z,0.60
2022-11-04T13:53:45.230Z,0.60
2022-11-04T13:56:34.509Z,0.73
2022-11-04T13:59:20.826Z,0.60
2022-11-04T14:01:49.532Z,0.90
2022-11-04T14:04:31.149Z,0.85
2022-11-04T14:07:03.973Z,0.60
2022-11-04T14:09:59.545Z,0.95
2022-11-04T14:12:36.161Z,0.63
2022-11-04T14:15:17.935Z,0.50
2022-11-04T14:18:02.673Z,0.68
2022-11-04T14:20:37.664Z,0.50
2022-11-04T14:23:08.932Z,0.80
2022-11-04T14:25:40.545Z,0.70
2022-11-04T14:28:29.174Z,0.77
2022-11-04T14:30:59.784Z,0.80
2022-11-04T14:33:44.090Z,0.70
2022-11-04T14:36:28.538Z,0.47
2022-11-04T14:39:01.953Z,0.60
2022-11-04T14:41:53.218Z,0.55
2022-11-04T14:44:30.835Z,0.82
2022-11-04T14:47:07.458Z,0.55
2022-11-04T14:49:45.577Z,0.57
2022-11-04T14:52:29.004Z,0.80
2022-11-04T14:55:05.230Z,0.50
2022-11-04T14:57:39.132Z,0.60
2022-11-04T15:00:36.011Z,0.60
2022-11-04T15:03:57.609Z,0.90
2022-11-04T15:06:08.319Z,0.60
2022-11-04T15:11:17.194Z,0.40
2022-11-04T15:13:50.710Z,0.65
2022-11-04T15:16:24.212Z,1.02
2022-11-04T15:18:54.108Z,0.60
2022-11-04T15:21:22.345Z,1.00
2022-11-04T15:23:55.361Z,0.50
2022-11-04T15:26:30.115Z,0.50
2022-11-04T15:29:00.969Z,0.65
2022-11-04T15:31:31.722Z,0.60
2022-11-04T15:34:03.776Z,0.65
2022-11-04T15:36:37.079Z,0.70
2022-11-04T15:39:13.490Z,1.02
2022-11-04T15:42:00.778Z,0.77
2022-11-04T15:44:31.533Z,0.70
2022-11-04T15:47:02.673Z,0.80
2022-11-04T15:49:32.726Z,0.80
2022-11-04T15:52:06.122Z,1.00
2022-11-04T15:54:39.875Z,0.80
2022-11-04T15:57:17.386Z,1.25
2022-11-04T15:59:51.791Z,0.60
2022-11-04T16:02:28.559Z,0.93
2022-11-04T16:05:08.639Z,0.75
2022-11-04T16:07:39.815Z,0.80
2022-11-04T16:10:39.198Z,1.00
2022-11-04T16:13:25.684Z,0.50
2022-11-04T16:16:09.623Z,0.95
2022-11-04T16:18:41.188Z,0.50
2022-11-04T16:21:13.995Z,0.77
2022-11-04T16:23:50.266Z,0.68
2022-11-04T16:26:27.418Z,0.55
2022-11-04T16:28:57.538Z,0.60
2022-11-04T16:31:33.230Z,0.60
2022-11-04T16:34:01.591Z,0.70
2022-11-04T16:36:35.139Z,0.68
2022-11-04T16:39:08.457Z,0.60
2022-11-04T16:41:41.403Z,0.63
2022-11-04T16:44:20.800Z,0.93
2022-11-04T16:46:48.779Z,0.70
2022-11-04T16:49:19.390Z,0.70
2022-11-04T16:51:50.361Z,0.70
2022-11-04T16:56:47.420Z,0.50
2022-11-04T16:59:15.375Z,0.52
2022-11-04T17:01:43.290Z,0.63
2022-11-04T17:04:11.391Z,0.70
2022-11-04T17:06:40.020Z,0.80
2022-11-04T17:09:20.398Z,0.65
2022-11-04T17:11:50.488Z,0.80
2022-11-04T17:14:18.382Z,1.00
2022-11-04T17:16:46.516Z,1.00
2022-11-04T17:19:17.446Z,0.90
2022-11-04T17:24:14.687Z,0.60
2022-11-04T17:26:42.705Z,0.60
2022-11-04T17:29:17.077Z,0.68
2022-11-04T17:31:45.416Z,1.00
2022-11-04T17:34:13.611Z,0.60
2022-11-04T17:36:41.462Z,0.60
2022-11-04T17:39:09.314Z,0.60
2022-11-04T17:41:54.522Z,1.17
2022-11-04T17:44:23.727Z,0.70
2022-11-04T17:46:51.561Z,0.88
2022-11-04T17:49:22.882Z,0.68
2022-11-04T17:51:54.262Z,0.60
2022-11-04T17:54:23.290Z,0.98
2022-11-04T17:56:51.123Z,0.60
2022-11-04T17:59:19.092Z,0.60
2022-11-04T18:01:49.025Z,0.60
2022-11-04T18:04:20.940Z,0.77
2022-11-04T18:06:49.618Z,0.80
2022-11-04T18:09:18.908Z,0.70
2022-11-04T18:12:05.449Z,0.95
2022-11-04T18:14:33.708Z,0.80
2022-11-04T18:17:03.030Z,0.60
2022-11-04T18:19:31.291Z,0.70
2022-11-04T18:21:59.325Z,0.80
2022-11-04T18:24:27.307Z,0.80
2022-11-04T18:26:55.607Z,0.77
2022-11-04T18:29:23.581Z,0.82
2022-11-04T18:31:51.580Z,0.82
2022-11-04T18:34:21.656Z,0.98
2022-11-04T18:36:50.236Z,1.30
2022-11-04T18:39:19.938Z,0.80
2022-11-04T18:41:48.479Z,0.80
2022-11-04T18:44:19.377Z,0.68
2022-11-04T18:49:16.843Z,0.77
2022-11-04T18:51:46.501Z,0.90
2022-11-04T18:54:15.133Z,0.88
2022-11-04T18:56:44.070Z,0.63
2022-11-04T18:59:13.273Z,1.00
2022-11-04T19:01:42.503Z,1.15
2022-11-04T19:04:10.645Z,0.73
2022-11-04T19:06:43.978Z,1.00
2022-11-04T19:12:23.877Z,0.98
2022-11-04T19:14:52.881Z,0.80
2022-11-04T19:17:21.537Z,0.80
2022-11-04T19:19:50.225Z,1.10
2022-11-04T19:22:18.114Z,0.80
2022-11-04T19:24:47.298Z,1.05
2022-11-04T19:27:17.458Z,0.90
2022-11-04T19:29:45.287Z,0.95
2022-11-04T19:32:14.581Z,1.23
2022-11-04T19:34:43.363Z,0.90
2022-11-04T19:37:11.868Z,1.02
2022-11-04T19:39:40.045Z,0.70
2022-11-04T19:42:28.218Z,0.73
2022-11-04T19:44:56.001Z,1.08
2022-11-04T19:47:23.892Z,0.90
2022-11-04T19:49:51.737Z,0.60
2022-11-04T19:52:20.176Z,0.70
2022-11-04T19:54:48.042Z,0.88
2022-11-04T19:57:17.414Z,0.93
2022-11-04T19:59:45.252Z,0.63
2022-11-04T20:02:15.759Z,0.77
2022-11-04T20:04:43.656Z,0.80
2022-11-04T20:07:11.420Z,0.70
2022-11-04T20:09:39.517Z,0.93
2022-11-04T20:12:25.344Z,0.60
2022-11-04T20:14:57.487Z,0.70
2022-11-04T20:17:25.464Z,0.82
2022-11-04T20:19:53.273Z,0.80
2022-11-04T20:22:21.084Z,0.55
2022-11-04T20:24:49.012Z,0.70
2022-11-04T20:27:16.937Z,0.75
2022-11-04T20:29:45.035Z,0.70
2022-11-04T20:32:14.246Z,0.75
2022-11-04T20:34:42.071Z,0.63
2022-11-04T20:37:11.681Z,0.60
2022-11-04T20:39:39.731Z,0.75
2022-11-04T20:42:07.688Z,0.68
2022-11-04T20:44:35.557Z,0.65
2022-11-04T20:47:03.404Z,0.82
2022-11-04T20:49:32.737Z,1.05
2022-11-04T20:52:00.529Z,0.60
2022-11-04T20:54:28.516Z,0.60
2022-11-04T20:56:56.377Z,0.50
2022-11-04T20:59:24.116Z,0.63
2022-11-04T21:01:52.628Z,1.00
2022-11-04T21:04:22.163Z,0.88
2022-11-04T21:06:52.564Z,0.60
2022-11-04T21:09:22.597Z,0.90
2022-11-04T21:11:51.286Z,0.70
2022-11-04T21:14:20.215Z,0.70
2022-11-04T21:16:49.136Z,0.70
2022-11-04T21:19:17.761Z,0.47
2022-11-04T21:21:46.914Z,0.93
2022-11-04T21:24:17.645Z,0.52
2022-11-04T21:26:46.598Z,0.57
2022-11-04T21:29:17.847Z,0.70
2022-11-04T21:31:47.047Z,0.60
2022-11-04T21:34:15.066Z,1.02
2022-11-04T21:36:43.079Z,0.60
2022-11-04T21:39:12.993Z,0.63
2022-11-04T21:41:42.142Z,0.75
2022-11-04T21:44:13.918Z,0.93
2022-11-04T21:46:42.410Z,0.70
2022-11-04T21:49:13.509Z,0.57
2022-11-04T21:51:41.345Z,0.57
2022-11-04T21:54:09.235Z,0.90
2022-11-04T21:56:37.157Z,0.40
2022-11-04T21:59:06.674Z,0.65
2022-11-04T22:01:35.016Z,1.13
2022-11-04T22:04:04.367Z,0.70
2022-11-04T22:06:35.507Z,0.70
2022-11-04T22:09:05.265Z,0.55
2022-11-04T22:11:36.559Z,0.60
2022-11-04T22:14:09.079Z,0.70
2022-11-04T22:16:39.262Z,0.68
2022-11-04T22:19:10.906Z,0.70
2022-11-04T22:21:41.676Z,0.40
2022-11-04T22:24:12.574Z,0.50
2022-11-04T22:29:10.605Z,0.50
2022-11-04T22:31:41.886Z,0.70
2022-11-04T22:34:09.938Z,0.60
2022-11-04T22:36:37.961Z,0.50
2022-11-04T22:39:08.301Z,0.60
2022-11-04T22:41:38.349Z,0.60
2022-11-04T22:44:06.270Z,0.50
2022-11-04T22:46:35.578Z,0.77
2022-11-04T22:49:03.509Z,0.60
2022-11-04T22:51:32.494Z,0.60
2022-11-04T22:54:07.562Z,0.43
2022-11-04T22:56:35.931Z,0.70
2022-11-04T22:59:03.946Z,0.60
2022-11-04T23:01:33.119Z,0.60
2022-11-04T23:04:02.623Z,0.70
2022-11-04T23:06:30.689Z,0.50
2022-11-04T23:09:00.310Z,0.80
2022-11-04T23:11:48.724Z,0.52
2022-11-04T23:14:36.745Z,0.60
2022-11-04T23:17:32.219Z,0.80
2022-11-04T23:20:01.462Z,0.57
2022-11-04T23:22:46.522Z,0.80
2022-11-04T23:25:15.201Z,1.17
2022-11-04T23:28:03.673Z,0.73
2022-11-04T23:30:36.275Z,0.52
2022-11-04T23:33:07.851Z,0.50
2022-11-04T23:35:58.156Z,0.55
2022-11-04T23:38:29.269Z,0.60
2022-11-04T23:41:17.743Z,0.70
2022-11-04T23:43:45.872Z,0.60
2022-11-04T23:46:31.663Z,0.70
2022-11-04T23:49:17.347Z,0.75
2022-11-04T23:52:04.284Z,0.60
2022-11-04T23:54:49.515Z,0.70
2022-11-04T23:57:37.257Z,0.52
